createdAt,value
2023-05-07T00:08:21.873Z,3.17
2023-05-07T00:18:26.361Z,3.45
2023-05-07T00:28:28.247Z,3.30
2023-05-07T00:38:38.256Z,2.92
2023-05-07T00:48:40.371Z,3.70
2023-05-07T00:58:44.455Z,3.03
2023-05-07T01:08:47.674Z,3.05
2023-05-07T01:18:50.229Z,3.15
2023-05-07T01:28:52.157Z,3.53
2023-05-07T01:38:54.565Z,2.88
2023-05-07T01:48:56.925Z,3.40
2023-05-07T01:59:06.355Z,2.47
2023-05-07T02:09:12.988Z,2.45
2023-05-07T02:19:15.077Z,2.53
2023-05-07T02:29:16.934Z,2.20
2023-05-07T02:39:18.874Z,2.55
2023-05-07T02:49:21.024Z,2.35
2023-05-07T02:59:23.033Z,2.75
2023-05-07T03:09:33.853Z,2.28
2023-05-07T03:19:35.694Z,2.25
2023-05-07T03:29:43.683Z,2.47
2023-05-07T03:39:45.580Z,2.60
2023-05-07T03:49:47.551Z,2.15
2023-05-07T03:59:50.527Z,2.45
2023-05-07T04:09:52.665Z,2.33
2023-05-07T04:20:08.696Z,1.95
2023-05-07T04:30:36.600Z,2.22
2023-05-07T04:40:38.765Z,2.20
2023-05-07T04:50:40.799Z,2.30
2023-05-07T05:00:43.738Z,2.75
2023-05-07T05:10:49.856Z,2.28
2023-05-07T05:20:53.287Z,2.72
2023-05-07T05:30:55.336Z,2.15
2023-05-07T05:40:57.288Z,2.03
2023-05-07T05:51:02.383Z,2.03
2023-05-07T06:01:04.526Z,1.98
2023-05-07T06:11:07.467Z,1.92
2023-05-07T06:21:09.425Z,2.03
2023-05-07T06:31:14.917Z,1.80
2023-05-07T06:41:16.984Z,2.00
2023-05-07T06:51:19.012Z,1.67
2023-05-07T07:01:34.905Z,2.35
2023-05-07T07:11:48.144Z,2.33
2023-05-07T07:21:52.051Z,2.15
2023-05-07T07:31:54.257Z,2.22
2023-05-07T07:41:57.244Z,2.30
2023-05-07T07:52:00.701Z,2.58
2023-05-07T08:02:03.752Z,2.10
2023-05-07T08:12:09.211Z,2.25
2023-05-07T08:22:12.058Z,1.75
2023-05-07T08:32:29.112Z,2.60
2023-05-07T08:42:33.306Z,2.17
2023-05-07T08:52:35.449Z,2.70
2023-05-07T09:02:42.721Z,2.92
2023-05-07T09:12:52.250Z,1.30
2023-05-07T09:22:57.377Z,2.13
2023-05-07T09:33:00.650Z,2.53
2023-05-07T09:43:15.229Z,1.77
2023-05-07T09:53:24.087Z,1.67
2023-05-07T10:03:30.041Z,2.33
2023-05-07T10:13:39.406Z,1.90
2023-05-07T10:23:49.619Z,1.83
2023-05-07T10:33:54.388Z,1.70
2023-05-07T10:44:04.554Z,2.33
2023-05-07T10:54:16.792Z,2.88
2023-05-07T11:04:34.793Z,1.15
2023-05-07T11:15:02.124Z,2.05
2023-05-07T11:25:11.421Z,1.52
2023-05-07T11:35:14.191Z,0.90
2023-05-07T11:45:27.176Z,1.35
2023-05-07T11:55:29.115Z,1.45
2023-05-07T12:05:31.140Z,0.95
2023-05-07T12:15:36.209Z,3.28
2023-05-07T12:25:48.921Z,3.05
2023-05-07T12:35:51.264Z,9.98
2023-05-07T12:45:56.329Z,1.90
2023-05-07T12:56:17.039Z,2.03
2023-05-07T13:06:19.081Z,2.05
2023-05-07T13:16:26.090Z,2.50
2023-05-07T13:26:28.158Z,2.15
2023-05-07T13:36:36.732Z,1.65
2023-05-07T13:46:58.253Z,1.80
2023-05-07T13:57:09.272Z,1.90
2023-05-07T14:07:11.444Z,1.75
2023-05-07T14:17:14.035Z,1.75
2023-05-07T14:27:24.185Z,1.85
2023-05-07T14:37:29.487Z,2.35
2023-05-07T14:47:31.661Z,1.35
2023-05-07T14:57:36.400Z,2.17
2023-05-07T15:07:41.825Z,1.90
2023-05-07T15:17:46.103Z,1.60
2023-05-07T15:27:56.116Z,2.13
2023-05-07T15:38:09.973Z,1.80
2023-05-07T15:48:12.167Z,1.60
2023-05-07T15:58:14.137Z,3.05
2023-05-07T16:08:29.512Z,1.70
2023-05-07T16:18:37.688Z,2.08
2023-05-07T16:29:11.472Z,1.65
2023-05-07T16:39:13.606Z,2.15
2023-05-07T16:49:21.383Z,2.00
2023-05-07T16:59:25.604Z,3.15
2023-05-07T17:09:32.573Z,2.58
2023-05-07T17:19:40.085Z,2.10
2023-05-07T17:29:42.182Z,2.35
2023-05-07T17:39:44.691Z,3.10
2023-05-07T17:49:46.933Z,3.58
2023-05-07T17:59:51.241Z,8.98
2023-05-07T18:09:55.263Z,7.35
2023-05-07T18:19:57.346Z,6.68
2023-05-07T18:30:01.732Z,9.85
2023-05-07T18:40:29.423Z,10.05
2023-05-07T18:50:31.543Z,9.77
2023-05-07T19:00:33.580Z,9.82
2023-05-07T19:10:38.373Z,12.05
2023-05-07T19:21:06.747Z,13.95
2023-05-07T19:31:22.452Z,11.60
2023-05-07T19:41:25.157Z,7.53
2023-05-07T19:51:29.516Z,9.38
2023-05-07T20:01:34.287Z,9.82
2023-05-07T20:11:36.371Z,9.55
2023-05-07T20:21:38.308Z,14.00
2023-05-07T20:31:41.462Z,10.02
2023-05-07T20:41:46.741Z,10.02
2023-05-07T20:51:57.768Z,11.40
2023-05-07T21:02:02.894Z,10.93
2023-05-07T21:12:05.018Z,11.82
2023-05-07T21:22:11.427Z,11.45
2023-05-07T21:42:36.705Z,15.13
2023-05-07T21:52:55.293Z,15.32
2023-05-07T22:03:06.483Z,14.90
2023-05-07T22:13:09.581Z,14.55
2023-05-07T22:23:12.573Z,19.13
2023-05-07T22:33:14.517Z,32.53
2023-05-07T22:43:19.484Z,23.23
2023-05-07T22:53:21.744Z,19.33
2023-05-07T23:03:27.089Z,18.60
2023-05-07T23:13:29.053Z,17.63
2023-05-07T23:23:33.896Z,16.13
2023-05-07T23:33:36.511Z,15.65
2023-05-07T23:43:38.640Z,17.25
2023-05-07T23:53:40.847Z,16.85
